• Join FlightAware (Why Join?)
  • Login
  • US Flag 
04:20AM EDT


 

Airport Tracker/Info


-or-


 

Live Flight TrackerFlight Track Log ✈ FSR411 ✈ 12-Jun-2013 ✈ KSFZ - KCMI

Flight Track Log - Related Links

Times and Time Zones

All times are in EDT time to prevent confusion due to time zone crossing. See the FSR411 flight status page for this flight to view local times or setup timezone preferences in your user account.

Time Position Orientation Groundspeed Altitude Reporting Facility
EDT Latitude Longitude Course Direction KTS MPH feet Rate Location/Type
05:35PM 41.9358 -71.4800 292° West 153 176 1,200  Level Boston Center
05:36PM 41.9711 -71.4683 14° North 202 232 3,200 2,340 Climbing Boston Center
05:37PM 41.9781 -71.5436 277° West 186 214 5,300 2,400 Climbing Boston Center
05:38PM 41.9703 -71.6444 264° West 232 267 8,100 2,940 Climbing Boston Center
05:39PM 42.0924 -72.3068 291° West  Level FlightAware Approximate
05:39PM 41.9939 -71.7503 287° West 284 327 11,200  Level Boston Center
05:40PM 42.1356 -72.4401 294° West  Level FlightAware Approximate
05:40PM 42.0239 -71.8644 290° West 311 358 13,800  Level Boston Center
05:41PM 42.1774 -72.5744 292° West  Level FlightAware Approximate
05:41PM 42.0514 -71.9789 288° West 348 400 17,500  Level Boston Center
05:42PM 42.0872 -72.1156 289° West 354 407 21,000 3,000 Climbing Boston Center
05:43PM 42.1189 -72.2469 288° West 359 413 23,500 2,160 Climbing Boston Center
05:44PM 42.1439 -72.3533 288° West 364 419 25,400 2,280 Climbing Boston Center
05:45PM 42.1858 -72.5158 289° West 370 426 28,100 2,100 Climbing Boston Center
05:46PM 42.2169 -72.6503 287° West 375 432 29,700 1,680 Climbing Boston Center
05:47PM 42.2497 -72.7878 288° West 380 437 31,500 1,740 Climbing Boston Center
05:48PM 42.2722 -72.9256 282° West 380 437 33,200 1,200 Climbing Boston Center
05:49PM 42.2986 -73.0744 284° West 387 445 34,000 360 Climbing Boston Center
05:50PM 42.3228 -73.2208 283° West 393 452 34,000  Level Boston Center
05:51PM 42.3486 -73.3672 283° West 391 450 34,000 240 Level Boston Center
05:52PM 42.3725 -73.5081 283° West 396 456 34,500 1,020 Climbing Boston Center
05:53PM 42.3939 -73.6433 282° West 385 443 36,100 1,320 Climbing Boston Center
05:54PM 42.4153 -73.7814 282° West 380 437 37,200 960 Climbing Boston Center
05:55PM 42.4386 -73.9228 283° West 380 437 38,100 900 Climbing Boston Center
05:56PM 42.4617 -74.0611 283° West 375 432 39,000 900 Climbing Boston Center
05:57PM 42.4825 -74.2025 281° West 380 437 39,900 900 Climbing Boston Center
05:58PM 42.5053 -74.3411 283° West 380 437 40,900 840 Climbing Boston Center
05:59PM 42.5219 -74.4628 281° West 380 437 41,600 600 Climbing Boston Center
06:00PM 42.5425 -74.5986 282° West 374 430 42,200 600 Climbing Boston Center
06:01PM 42.5647 -74.7347 283° West 374 430 42,800 360 Climbing Boston Center
06:02PM 42.5847 -74.8736 281° West 374 430 43,000 60 Climbing Boston Center
06:03PM 42.6047 -75.0156 281° West 374 430 43,000  Level Boston Center
06:04PM 42.5992 -75.1650 267° West 386 444 43,000  Level Boston Center
06:05PM 42.5831 -75.3108 262° West 391 450 43,000  Level Boston Center
06:06PM 42.5728 -75.4597 265° West 397 457 43,000  Level Boston Center
06:07PM 42.5586 -75.6031 262° West 397 457 43,000  Level Boston Center
06:08PM 42.5442 -75.7458 262° West 402 463 43,000  Level Boston Center
06:09PM 42.5314 -75.8889 263° West 396 456 43,000  Level Boston Center
06:10PM 42.5186 -76.0347 263° West 391 450 43,000  Level Boston Center
06:11PM 42.5056 -76.1806 263° West 391 450 43,000  Level Boston Center
06:16PM 42.4347 -76.9003 263° West 405 466 43,000  Level Cleveland Center
06:17PM 42.4208 -77.0531 263° West 410 472 43,000  Level Cleveland Center
06:18PM 42.4044 -77.2031 262° West 410 472 43,000  Level Cleveland Center
06:19PM 42.3878 -77.3531 261° West 410 472 43,000  Level Cleveland Center
06:20PM 42.3711 -77.5028 261° West 410 472 43,000  Level Cleveland Center
06:21PM 42.3564 -77.6525 262° West 410 472 43,000  Level Cleveland Center
06:22PM 42.3411 -77.7992 262° West 410 472 43,000  Level Cleveland Center
06:23PM 42.3258 -77.9458 262° West 410 472 43,000  Level Cleveland Center
06:24PM 42.3083 -78.0900 261° West 405 466 43,000  Level Cleveland Center
06:25PM 42.2925 -78.2367 262° West 405 466 43,000  Level Cleveland Center
06:26PM 42.2767 -78.3858 262° West 405 466 43,000  Level Cleveland Center
06:27PM 42.2608 -78.5350 262° West 405 466 43,000  Level Cleveland Center
06:28PM 42.2422 -78.6789 260° West 405 466 43,000  Level Cleveland Center
06:29PM 42.2242 -78.8419 262° West 407 468 43,000  Level Cleveland Center
06:30PM 42.2053 -78.9769 259° West 407 468 43,000  Level Cleveland Center
06:31PM 42.1906 -79.1231 262° West 407 468 43,000  Level Cleveland Center
06:32PM 42.1611 -79.2750 255° West 413 475 43,000  Level Cleveland Center
06:33PM 42.1314 -79.4242 255° West 413 475 43,000  Level Cleveland Center
06:34PM 42.1036 -79.5700 256° West 413 475 43,000  Level Cleveland Center
06:35PM 42.0756 -79.7161 256° West 413 475 43,000  Level Cleveland Center
06:36PM 42.0453 -79.8647 255° West 413 475 43,000  Level Cleveland Center
06:37PM 42.0169 -80.0103 255° West 413 475 43,000  Level Cleveland Center
06:38PM 41.9883 -80.1558 255° West 413 475 43,000  Level Cleveland Center
06:39PM 41.9597 -80.3011 255° West 413 475 43,000  Level Cleveland Center
06:40PM 41.9267 -80.4631 255° West 408 470 43,000  Level Cleveland Center
06:41PM 41.8975 -80.6111 255° West 408 470 43,000  Level Cleveland Center
06:42PM 41.8681 -80.7561 255° West 413 475 43,000  Level Cleveland Center
06:43PM 41.8386 -80.9036 255° West 413 475 43,000  Level Cleveland Center
06:44PM 41.8089 -81.0511 255° West 413 475 43,000  Level Cleveland Center
06:45PM 41.7750 -81.1956 253° West 413 475 43,000  Level Cleveland Center
06:46PM 41.7447 -81.3483 255° West 418 481 43,000  Level Cleveland Center
06:47PM 41.7144 -81.4983 255° West 418 481 43,000  Level Cleveland Center
06:48PM 41.6819 -81.6453 254° West 418 481 43,000  Level Cleveland Center
06:49PM 41.6492 -81.7975 254° West 418 481 43,000  Level Cleveland Center
06:50PM 41.6183 -81.9497 255° West 418 481 43,000  Level Cleveland Center
06:51PM 41.5850 -82.0989 253° West 418 481 43,000  Level Cleveland Center
06:52PM 41.5683 -82.2483 262° West 411 473 43,000  Level Cleveland Center
06:53PM 41.5558 -82.4006 264° West 411 473 43,000  Level Cleveland Center
06:54PM 41.5447 -82.5531 264° West 406 467 43,000  Level Cleveland Center
06:55PM 41.5383 -82.6886 266° West 406 467 43,000  Level Cleveland Center
06:56PM 41.5311 -82.8383 266° West 406 467 43,000  Level Cleveland Center
06:57PM 41.5322 -82.9881 271° West 401 461 43,000  Level Cleveland Center
06:58PM 41.5333 -83.1408 271° West 406 467 43,000  Level Cleveland Center
06:59PM 41.5319 -83.2906 269° West 406 467 43,000  Level Cleveland Center
07:00PM 41.5344 -83.4403 271° West 406 467 43,000  Level Cleveland Center
07:01PM 41.5183 -83.5867 262° West 401 461 43,000  Level Cleveland Center
07:02PM 41.4769 -83.7289 249° West 401 461 43,000  Level Cleveland Center
07:03PM 41.4375 -83.8711 250° West 407 468 43,000  Level Cleveland Center
07:04PM 41.3958 -84.0128 249° West 413 475 43,000  Level Cleveland Center
07:05PM 41.3333 -84.2319 249° West 414 476 43,000  Level Chicago Center
07:06PM 41.2917 -84.3728 249° West 410 472 43,000  Level Chicago Center
07:07PM 41.2494 -84.5125 248° West 407 468 43,000  Level Chicago Center
07:08PM 41.2072 -84.6522 248° West 406 467 43,000  Level Chicago Center
07:09PM 41.1569 -84.8206 248° West 410 472 43,000 -300 Level Chicago Center
07:11PM 41.1128 -84.9622 248° West 413 475 42,500 -840 Descending Chicago Center
07:12PM 41.0700 -85.1039 248° West 414 476 41,400 -1,260 Descending Chicago Center
07:13PM 41.0256 -85.2436 247° West 411 473 40,000 -1,920 Descending Chicago Center
07:14PM 40.9831 -85.3872 249° West 415 478 37,500 -2,220 Descending Chicago Center
07:15PM 40.9406 -85.5206 247° West 397 457 35,600 -1,920 Descending Chicago Center
07:16PM 40.8908 -85.6433 242° Southwest 385 443 33,700 -1,680 Descending Chicago Center
07:17PM 40.8283 -85.7714 237° Southwest 413 475 32,200 -1,560 Descending Chicago Center
07:18PM 40.7661 -85.9000 237° Southwest 417 480 30,600 -1,560 Descending Chicago Center
07:19PM 40.7153 -86.0381 244° Southwest 416 479 29,100 -1,800 Descending Chicago Center
07:20PM 40.6717 -86.1978 250° West 425 489 27,000 -1,680 Descending Chicago Center
07:22PM 40.5892 -86.4775 249° West 409 471 24,100 -1,020 Descending Chicago Center
07:23PM 40.5481 -86.6150 249° West 407 468 24,000 -60 Descending Chicago Center
07:24PM 40.5072 -86.7525 249° West 407 468 24,000 -900 Level Chicago Center
07:25PM 40.4589 -86.9133 248° West 399 459 22,200 -1,920 Descending Chicago Center
07:26PM 40.4203 -87.0414 248° West 384 442 20,200 -1,980 Descending Chicago Center
07:27PM 40.3831 -87.1672 249° West 375 432 18,200 -2,040 Descending Chicago Center
07:28PM 40.3456 -87.2908 248° West 368 423 16,100 -1,620 Descending Chicago Center
07:29PM 40.3089 -87.4086 248° West 354 407 15,000 -960 Descending Chicago Center
07:30PM 40.2739 -87.5258 249° West 338 389 14,200 -780 Descending Chicago Center
07:31PM 40.2400 -87.6375 248° West 333 383 13,500 -840 Descending Chicago Center
07:32PM 40.2064 -87.7436 248° West 317 365 12,500 -1,920 Descending Chicago Center
07:33PM 40.1794 -87.8289 248° West 272 313 9,600 -3,420 Descending Chicago Center
07:34PM 40.1547 -87.9117 249° West 251 289 5,600 -3,000 Descending Chicago Center
07:35PM 40.1283 -88.0019 249° West 247 284 3,600 -1,980 Descending Chicago Center
07:37PM 40.0556 -88.1834 246° West  Level FlightAware Approximate
07:44PM 40.0333 -88.2667 252° West  Level FlightAware Approximate
07:45PM 40.0388 -88.2778 252° West  Level Estimated
07:46PM 40.0388 -88.2778 252° West  Level Estimated
07:47PM 40.0388 -88.2778 252° West  Level Estimated
07:48PM 40.0388 -88.2778 252° West  Level Estimated